createdAt,value
2018-10-06T10:40:48.258Z,6.90
2018-10-06T10:43:17.022Z,7.53
2018-10-06T10:45:45.722Z,5.80
2018-10-06T10:48:14.467Z,5.33
2018-10-06T10:50:43.228Z,3.73
2018-10-06T10:53:11.963Z,5.80
2018-10-06T10:55:40.774Z,5.30
2018-10-06T10:58:09.433Z,5.17
2018-10-06T11:00:38.146Z,6.43
2018-10-06T11:03:06.855Z,5.13
2018-10-06T11:05:35.565Z,4.73
2018-10-06T11:08:04.300Z,3.40
2018-10-06T11:10:33.027Z,5.30
2018-10-06T11:13:01.708Z,4.73
2018-10-06T11:15:30.444Z,3.57
2018-10-06T11:17:59.133Z,6.23
2018-10-06T11:20:27.903Z,5.33
2018-10-06T11:22:56.822Z,5.37
2018-10-06T11:25:25.559Z,5.30
2018-10-06T11:27:54.280Z,3.53
2018-10-06T11:30:22.983Z,4.70
2018-10-06T11:32:51.749Z,4.13
2018-10-06T11:35:20.590Z,4.83
2018-10-06T11:37:49.361Z,3.73
2018-10-06T11:40:18.042Z,5.87
2018-10-06T11:42:46.786Z,5.73
2018-10-06T11:45:15.485Z,6.93
2018-10-06T11:47:44.210Z,7.17
2018-10-06T11:50:12.982Z,6.60
2018-10-06T11:52:41.770Z,5.70
2018-10-06T11:55:10.571Z,6.50
2018-10-06T11:57:39.255Z,6.33
2018-10-06T12:00:08.627Z,7.03
2018-10-06T12:02:37.212Z,6.33
2018-10-06T12:05:06.003Z,10.07
2018-10-06T12:07:34.754Z,3.97
2018-10-06T12:10:03.616Z,3.37
2018-10-06T12:12:32.377Z,5.37
2018-10-06T12:15:01.045Z,5.00
2018-10-06T12:17:29.766Z,3.27
2018-10-06T12:19:58.553Z,5.33
2018-10-06T12:22:27.473Z,6.47
2018-10-06T12:24:56.303Z,14.13
2018-10-06T12:27:25.206Z,5.13
2018-10-06T12:29:53.929Z,7.10
2018-10-06T12:32:22.707Z,2.83
2018-10-06T12:34:51.569Z,4.17
2018-10-06T12:37:20.446Z,4.63
2018-10-06T12:39:49.149Z,6.37
2018-10-06T12:42:17.982Z,5.53
2018-10-06T12:44:46.804Z,4.93
2018-10-06T12:47:15.483Z,3.27
2018-10-06T12:49:44.256Z,4.53
2018-10-06T12:52:12.995Z,4.83
2018-10-06T12:54:41.693Z,4.93
2018-10-06T12:57:10.371Z,6.47
2018-10-06T12:59:39.434Z,4.50
2018-10-06T13:02:08.113Z,6.30
2018-10-06T13:04:37.255Z,7.70
2018-10-06T13:07:06.101Z,8.20
2018-10-06T13:09:34.956Z,4.30
2018-10-06T13:12:03.727Z,4.27
2018-10-06T13:14:32.488Z,7.00
2018-10-06T13:17:01.205Z,3.97
2018-10-06T13:19:30.074Z,3.53
2018-10-06T13:21:58.812Z,7.57
2018-10-06T13:24:27.512Z,3.83
2018-10-06T13:49:49.653Z,6.10
2018-10-06T13:52:18.271Z,5.37
2018-10-06T13:54:46.903Z,6.57
2018-10-06T13:57:15.642Z,7.87
2018-10-06T13:59:44.339Z,7.30
2018-10-06T14:02:13.114Z,6.07
2018-10-06T14:04:41.778Z,4.07
2018-10-06T14:07:10.439Z,4.17
2018-10-06T14:09:39.125Z,8.73
2018-10-06T14:12:07.833Z,4.70
2018-10-06T14:14:36.506Z,4.57
2018-10-06T14:17:05.222Z,5.70
2018-10-06T14:19:33.871Z,6.30
2018-10-06T14:22:02.572Z,5.90
2018-10-06T14:24:31.217Z,4.33
2018-10-06T14:26:59.923Z,5.33
2018-10-06T14:29:28.573Z,6.30
2018-10-06T14:31:57.250Z,3.80
2018-10-06T14:34:25.923Z,3.80
2018-10-06T14:36:54.597Z,6.57
2018-10-06T14:39:23.299Z,10.70
2018-10-06T14:41:52.014Z,8.83
2018-10-06T14:44:20.766Z,7.17
2018-10-06T14:46:49.473Z,6.13
2018-10-06T14:49:18.280Z,5.63
2018-10-06T14:51:47.007Z,7.93
2018-10-06T14:54:15.623Z,6.03
2018-10-06T14:56:44.610Z,11.60
2018-10-06T14:59:13.322Z,5.27
2018-10-06T15:01:42.159Z,4.63
2018-10-06T15:04:10.863Z,5.83
2018-10-06T15:06:39.476Z,6.37
2018-10-06T15:09:09.493Z,6.20
2018-10-06T15:11:38.207Z,4.13
2018-10-06T15:14:07.100Z,3.43
2018-10-06T15:16:36.085Z,6.07
2018-10-06T15:19:04.813Z,6.40
2018-10-06T15:21:33.597Z,7.43
2018-10-06T15:24:02.180Z,4.33
2018-10-06T15:26:30.877Z,5.37
2018-10-06T15:28:59.688Z,6.13
2018-10-06T15:31:28.790Z,12.63
2018-10-06T15:33:57.413Z,9.87
2018-10-06T15:36:26.124Z,4.67
2018-10-06T15:38:54.806Z,4.83
2018-10-06T15:41:23.447Z,4.07
2018-10-06T15:43:52.161Z,6.93
2018-10-06T15:46:20.794Z,4.20
2018-10-06T15:48:49.410Z,6.40
2018-10-06T15:51:18.055Z,5.93
2018-10-06T15:53:46.717Z,6.17
2018-10-06T15:56:15.419Z,4.23
2018-10-06T15:58:44.046Z,6.23
2018-10-06T16:01:12.749Z,7.40
2018-10-06T16:03:41.403Z,6.87
2018-10-06T16:06:10.151Z,16.17
2018-10-06T16:08:38.909Z,18.03
2018-10-06T16:11:07.588Z,23.77
2018-10-06T16:13:36.239Z,227.30
2018-10-06T16:16:04.895Z,47.30
2018-10-06T16:18:33.578Z,13.17
2018-10-06T16:21:02.270Z,6.53
2018-10-06T16:23:30.879Z,9.13
2018-10-06T16:25:59.536Z,13.27
2018-10-06T16:28:28.563Z,11.63
2018-10-06T16:30:57.692Z,8.03
2018-10-06T16:33:26.434Z,5.60
2018-10-06T16:35:55.070Z,4.27
2018-10-06T16:38:23.749Z,5.67
2018-10-06T16:40:52.426Z,5.70
2018-10-06T16:43:21.127Z,8.63
2018-10-06T16:45:49.775Z,8.13
2018-10-06T16:48:18.394Z,8.73
2018-10-06T16:50:47.094Z,10.33
2018-10-06T16:53:15.711Z,14.93
2018-10-06T16:55:44.387Z,9.33
2018-10-06T16:58:13.082Z,9.83
2018-10-06T17:00:41.739Z,6.63
2018-10-06T17:03:10.427Z,7.00
2018-10-06T17:05:39.100Z,6.90
2018-10-06T17:08:07.738Z,7.60
2018-10-06T17:10:36.433Z,8.60
2018-10-06T17:13:05.221Z,12.97
2018-10-06T17:15:33.863Z,12.40
2018-10-06T17:18:02.565Z,6.63
2018-10-06T17:20:31.251Z,10.23
2018-10-06T17:22:59.945Z,9.17
2018-10-06T17:25:28.612Z,8.53
2018-10-06T17:27:57.263Z,11.20
2018-10-06T17:30:26.021Z,8.57
2018-10-06T17:32:54.681Z,5.80
2018-10-06T17:35:23.323Z,14.43
2018-10-06T17:37:52.051Z,9.27
2018-10-06T17:40:20.736Z,10.97
2018-10-06T17:42:49.419Z,9.00
2018-10-06T17:45:18.056Z,9.87
2018-10-06T17:47:46.771Z,9.33
2018-10-06T17:50:15.562Z,5.70
2018-10-06T17:52:44.146Z,8.17
2018-10-06T17:55:12.833Z,7.37
2018-10-06T17:57:41.532Z,8.13
2018-10-06T18:00:10.254Z,6.60
2018-10-06T18:02:38.984Z,8.63
2018-10-06T18:05:07.650Z,7.73
2018-10-06T18:07:36.290Z,5.00
2018-10-06T18:10:04.994Z,9.37
2018-10-06T18:12:33.815Z,9.77
2018-10-06T18:15:02.516Z,9.87
2018-10-06T18:17:31.545Z,7.13
2018-10-06T18:20:00.317Z,9.33
2018-10-06T18:22:29.477Z,8.33
2018-10-06T18:24:58.141Z,7.30
2018-10-06T18:27:26.821Z,5.73
2018-10-06T18:29:55.510Z,5.37
2018-10-06T18:32:24.242Z,5.83
2018-10-06T18:34:52.849Z,8.50
2018-10-06T18:37:21.585Z,11.20
2018-10-06T18:39:50.328Z,7.60
2018-10-06T18:42:18.936Z,8.27
2018-10-06T18:44:47.614Z,7.63
2018-10-06T18:47:16.307Z,7.53
2018-10-06T18:49:45.021Z,8.83
2018-10-06T18:52:13.688Z,6.20
2018-10-06T18:54:42.356Z,7.73
2018-10-06T18:57:11.112Z,7.73
2018-10-06T18:59:39.771Z,10.30
2018-10-06T19:02:08.639Z,6.53
2018-10-06T19:04:37.279Z,8.00
2018-10-06T19:07:06.008Z,12.77
2018-10-06T19:09:34.717Z,8.00
2018-10-06T19:12:03.448Z,10.43
2018-10-06T19:14:32.166Z,10.57
2018-10-06T19:17:00.838Z,8.67
2018-10-06T19:19:29.466Z,10.93
2018-10-06T19:21:59.023Z,11.00
2018-10-06T19:24:27.660Z,10.07
2018-10-06T19:26:57.475Z,8.33
2018-10-06T19:29:26.516Z,9.50
2018-10-06T19:31:55.535Z,10.77
2018-10-06T19:34:24.199Z,11.03
2018-10-06T19:36:52.848Z,11.13
2018-10-06T19:39:21.486Z,9.37
2018-10-06T19:41:50.154Z,9.37
2018-10-06T19:44:18.784Z,9.70
2018-10-06T19:46:48.190Z,10.43
2018-10-06T19:49:16.962Z,9.13
2018-10-06T19:51:46.109Z,8.27
2018-10-06T19:54:15.086Z,10.37
2018-10-06T19:56:43.758Z,9.10
2018-10-06T19:59:13.312Z,9.47
2018-10-06T20:01:41.981Z,10.13
2018-10-06T20:04:11.109Z,9.43
2018-10-06T20:06:39.817Z,8.83
2018-10-06T20:09:09.875Z,8.53
2018-10-06T20:11:39.065Z,11.03
2018-10-06T20:14:08.060Z,10.10
2018-10-06T20:16:36.745Z,11.03
2018-10-06T20:19:05.485Z,10.00
2018-10-06T20:21:34.723Z,12.63
2018-10-06T20:24:03.415Z,11.00
2018-10-06T20:26:32.095Z,10.10
2018-10-06T20:29:00.858Z,9.87
2018-10-06T20:31:29.677Z,10.47
2018-10-06T20:33:58.479Z,12.93
2018-10-06T20:36:27.288Z,13.50
2018-10-06T20:38:56.053Z,12.83
2018-10-06T20:41:24.964Z,10.37
2018-10-06T20:43:54.664Z,10.27
2018-10-06T20:46:23.482Z,9.93
2018-10-06T20:48:52.750Z,10.20
2018-10-06T20:51:21.864Z,9.93
2018-10-06T20:53:50.729Z,10.50
2018-10-06T20:56:20.184Z,12.00
2018-10-06T20:58:49.012Z,10.37
2018-10-06T21:01:18.176Z,13.83
2018-10-06T21:03:46.964Z,10.63
2018-10-06T21:06:15.808Z,10.37
2018-10-06T21:08:44.563Z,12.67
2018-10-06T21:11:13.467Z,10.20
2018-10-06T21:13:42.273Z,11.23
2018-10-06T21:16:11.046Z,11.80
2018-10-06T21:18:39.869Z,11.67
2018-10-06T21:21:09.288Z,12.00
2018-10-06T21:23:39.242Z,11.23
2018-10-06T21:26:08.425Z,11.07
2018-10-06T21:28:37.269Z,12.77
2018-10-06T21:31:06.135Z,11.00
2018-10-06T21:33:35.286Z,12.43
2018-10-06T21:36:04.164Z,13.57
2018-10-06T21:38:32.936Z,16.03
2018-10-06T21:41:01.756Z,13.77
2018-10-06T21:43:30.521Z,13.33
2018-10-06T21:45:59.482Z,13.13
2018-10-06T21:48:28.256Z,15.83
2018-10-06T21:50:57.186Z,15.50
2018-10-06T21:53:25.891Z,22.00
2018-10-06T21:55:54.740Z,23.13
2018-10-06T21:58:23.513Z,22.67
2018-10-06T22:00:57.477Z,19.47
2018-10-06T22:03:26.485Z,25.90
2018-10-06T22:05:55.281Z,34.87
2018-10-06T22:08:24.245Z,32.43
2018-10-06T22:10:53.055Z,43.73
2018-10-06T22:13:21.862Z,34.77
2018-10-06T22:15:50.698Z,35.27
2018-10-06T22:18:19.460Z,34.27
2018-10-06T22:20:48.365Z,36.30
2018-10-06T22:23:17.277Z,36.77
2018-10-06T22:25:46.589Z,36.40
2018-10-06T22:28:15.645Z,35.07
2018-10-06T22:30:44.455Z,37.43
2018-10-06T22:33:13.259Z,40.37
2018-10-06T22:35:42.002Z,40.03
2018-10-06T22:38:10.798Z,43.07
2018-10-06T22:40:39.640Z,45.10
2018-10-06T22:43:08.449Z,46.30
2018-10-06T22:45:37.269Z,42.27
2018-10-06T22:48:06.167Z,47.63
2018-10-06T22:50:35.026Z,51.43
2018-10-06T22:53:03.820Z,50.77
2018-10-06T22:55:32.592Z,64.30
2018-10-06T22:58:01.395Z,60.93
2018-10-06T23:00:30.159Z,54.07
2018-10-06T23:02:58.945Z,57.00
2018-10-06T23:05:27.720Z,56.03
2018-10-06T23:07:56.506Z,59.03
2018-10-06T23:10:25.256Z,58.10
2018-10-06T23:12:54.033Z,69.70
2018-10-06T23:15:22.839Z,68.87
2018-10-06T23:17:51.614Z,58.53
2018-10-06T23:20:20.357Z,59.20
2018-10-06T23:22:49.185Z,63.90
2018-10-06T23:25:17.964Z,59.47
2018-10-06T23:27:46.733Z,65.73
2018-10-06T23:30:15.495Z,64.90
2018-10-06T23:32:44.306Z,66.17
2018-10-06T23:35:13.132Z,58.60
2018-10-06T23:37:41.871Z,60.33
2018-10-06T23:40:10.677Z,56.27
2018-10-06T23:42:39.460Z,56.50
2018-10-06T23:45:08.469Z,57.77
2018-10-06T23:47:37.337Z,58.33
2018-10-06T23:50:06.260Z,56.60
2018-10-06T23:52:35.019Z,53.90
2018-10-06T23:55:09.873Z,49.70
2018-10-06T23:57:38.613Z,57.67
